createdAt,value
2017-12-22T00:01:35.497Z,79.50
2017-12-22T00:04:03.791Z,79.70
2017-12-22T00:06:32.054Z,79.80
2017-12-22T00:09:00.320Z,79.90
2017-12-22T00:11:28.105Z,79.70
2017-12-22T00:13:57.176Z,79.80
2017-12-22T00:16:25.733Z,79.70
2017-12-22T00:18:53.236Z,79.50
2017-12-22T00:21:20.756Z,79.40
2017-12-22T00:23:48.296Z,79.60
2017-12-22T00:26:16.627Z,79.40
2017-12-22T00:28:44.123Z,79.50
2017-12-22T00:31:12.401Z,79.50
2017-12-22T00:33:39.902Z,79.60
2017-12-22T00:36:07.409Z,79.50
2017-12-22T00:38:34.892Z,79.50
2017-12-22T00:41:02.487Z,79.80
2017-12-22T00:43:30.023Z,79.80
2017-12-22T00:46:03.332Z,79.70
2017-12-22T00:48:31.610Z,79.90
2017-12-22T00:50:59.909Z,79.90
2017-12-22T00:53:27.390Z,79.90
2017-12-22T00:55:54.941Z,79.60
2017-12-22T00:58:22.836Z,79.60
2017-12-22T01:00:50.360Z,79.70
2017-12-22T01:03:18.625Z,79.60
2017-12-22T01:05:46.891Z,79.40
2017-12-22T01:08:14.408Z,79.40
2017-12-22T01:10:41.929Z,79.40
2017-12-22T01:13:09.716Z,79.40
2017-12-22T01:15:44.049Z,79.50
2017-12-22T01:18:18.097Z,79.50
2017-12-22T01:20:45.600Z,79.70
2017-12-22T01:23:13.865Z,79.70
2017-12-22T01:25:41.406Z,79.70
2017-12-22T01:28:08.944Z,79.60
2017-12-22T01:30:36.822Z,79.40
2017-12-22T01:33:04.349Z,79.30
2017-12-22T01:35:32.637Z,79.40
2017-12-22T01:38:00.176Z,79.40
2017-12-22T01:40:27.667Z,79.40
2017-12-22T01:42:55.230Z,79.90
2017-12-22T01:45:22.858Z,79.30
2017-12-22T01:47:50.371Z,79.50
2017-12-22T01:50:18.724Z,79.90
2017-12-22T01:52:46.982Z,78.90
2017-12-22T01:55:14.765Z,78.90
2017-12-22T01:57:42.438Z,79.00
2017-12-22T02:00:09.955Z,79.10
2017-12-22T02:02:38.333Z,79.10
2017-12-22T02:05:05.829Z,78.60
2017-12-22T02:07:33.341Z,78.60
2017-12-22T02:10:01.416Z,78.50
2017-12-22T02:12:28.968Z,78.60
2017-12-22T02:14:56.490Z,78.40
2017-12-22T02:17:25.451Z,78.30
2017-12-22T02:19:53.058Z,78.30
2017-12-22T02:22:20.572Z,77.80
2017-12-22T02:24:48.077Z,77.80
2017-12-22T02:27:16.380Z,78.30
2017-12-22T02:29:44.625Z,77.90
2017-12-22T02:32:12.378Z,77.90
2017-12-22T02:34:39.869Z,77.60
2017-12-22T02:37:07.373Z,77.60
2017-12-22T02:39:35.644Z,77.90
2017-12-22T02:42:05.118Z,78.20
2017-12-22T02:44:32.622Z,77.90
2017-12-22T02:47:00.825Z,78.10
2017-12-22T02:49:28.322Z,77.90
2017-12-22T02:51:55.815Z,77.80
2017-12-22T02:54:23.321Z,77.80
2017-12-22T02:56:52.076Z,78.00
2017-12-22T02:59:20.338Z,78.10
2017-12-22T03:01:47.851Z,78.00
2017-12-22T03:04:15.377Z,78.00
2017-12-22T03:06:43.676Z,78.30
2017-12-22T03:09:11.936Z,78.40
2017-12-22T03:11:40.196Z,78.40
2017-12-22T03:14:07.801Z,78.40
2017-12-22T03:16:36.068Z,78.40
2017-12-22T03:19:04.328Z,78.30
2017-12-22T03:21:32.129Z,78.30
2017-12-22T03:24:00.465Z,78.70
2017-12-22T03:26:28.912Z,78.70
2017-12-22T03:28:56.475Z,78.80
2017-12-22T03:31:23.993Z,78.70
2017-12-22T03:33:51.694Z,79.00
2017-12-22T03:36:19.223Z,78.80
2017-12-22T03:38:46.700Z,79.00
2017-12-22T03:41:15.033Z,79.20
2017-12-22T03:43:42.573Z,78.90
2017-12-22T03:46:12.676Z,78.60
2017-12-22T03:48:40.973Z,78.70
2017-12-22T03:51:08.526Z,78.70
2017-12-22T03:53:36.812Z,78.50
2017-12-22T03:56:05.076Z,78.60
2017-12-22T03:58:33.664Z,78.70
2017-12-22T04:01:01.946Z,78.40
2017-12-22T04:03:29.437Z,78.40
2017-12-22T04:05:57.852Z,78.50
2017-12-22T04:08:27.202Z,78.50
2017-12-22T04:10:55.813Z,78.40
2017-12-22T04:13:23.397Z,78.40
2017-12-22T04:15:50.924Z,78.50
2017-12-22T04:18:19.250Z,78.30
2017-12-22T04:20:46.729Z,78.30
2017-12-22T04:23:14.254Z,78.50
2017-12-22T04:25:41.786Z,78.40
2017-12-22T04:28:10.056Z,78.30
2017-12-22T04:30:39.074Z,78.40
2017-12-22T04:33:07.324Z,78.00
2017-12-22T04:35:34.901Z,78.00
2017-12-22T04:38:03.323Z,78.20
2017-12-22T04:40:30.825Z,78.20
2017-12-22T04:42:58.453Z,77.90
2017-12-22T04:45:25.958Z,78.10
2017-12-22T04:47:53.605Z,77.50
2017-12-22T04:50:22.192Z,77.30
2017-12-22T04:52:49.700Z,77.30
2017-12-22T04:55:17.280Z,77.20
2017-12-22T04:57:45.543Z,77.10
2017-12-22T05:00:13.855Z,77.30
2017-12-22T05:02:41.350Z,76.60
2017-12-22T05:05:08.886Z,77.10
2017-12-22T05:07:36.415Z,77.10
2017-12-22T05:10:03.906Z,77.20
2017-12-22T05:12:31.758Z,77.20
2017-12-22T05:15:00.028Z,76.90
2017-12-22T05:17:27.501Z,76.90
2017-12-22T05:19:55.767Z,76.50
2017-12-22T05:22:23.271Z,76.60
2017-12-22T05:24:50.790Z,76.20
2017-12-22T05:27:18.421Z,76.20
2017-12-22T05:29:46.083Z,76.10
2017-12-22T05:32:13.577Z,75.90
2017-12-22T05:34:41.042Z,75.90
2017-12-22T05:37:08.793Z,76.00
2017-12-22T05:39:36.342Z,76.00
2017-12-22T05:42:03.909Z,76.20
2017-12-22T05:44:31.610Z,75.80
2017-12-22T05:46:59.192Z,75.70
2017-12-22T05:49:27.508Z,75.80
2017-12-22T05:51:55.000Z,75.80
2017-12-22T05:54:22.525Z,75.80
2017-12-22T05:56:50.010Z,75.50
2017-12-22T05:59:17.500Z,75.80
2017-12-22T06:01:45.033Z,75.50
2017-12-22T06:04:12.606Z,75.40
2017-12-22T06:06:40.098Z,75.20
2017-12-22T06:09:07.611Z,75.20
2017-12-22T06:11:35.101Z,75.20
2017-12-22T06:14:02.977Z,75.40
2017-12-22T06:16:30.472Z,75.40
2017-12-22T06:18:58.757Z,75.30
2017-12-22T06:21:27.020Z,74.70
2017-12-22T06:23:54.617Z,74.60
2017-12-22T06:26:22.120Z,74.70
2017-12-22T06:28:49.630Z,74.50
2017-12-22T06:31:17.881Z,74.70
2017-12-22T06:33:45.401Z,74.70
2017-12-22T06:36:14.165Z,74.90
2017-12-22T06:38:42.424Z,75.00
2017-12-22T06:41:09.952Z,74.90
2017-12-22T06:43:37.650Z,74.90
2017-12-22T06:46:05.171Z,75.20
2017-12-22T06:48:32.669Z,75.30
2017-12-22T06:51:00.153Z,75.30
2017-12-22T06:53:28.430Z,74.70
2017-12-22T06:55:56.401Z,75.30
2017-12-22T06:58:23.917Z,74.80
2017-12-22T07:00:52.372Z,75.10
2017-12-22T07:03:20.665Z,75.40
2017-12-22T07:05:48.221Z,75.40
2017-12-22T07:08:16.534Z,75.50
2017-12-22T07:10:44.559Z,75.50
2017-12-22T07:13:12.342Z,75.50
2017-12-22T07:15:40.646Z,75.80
2017-12-22T07:18:08.183Z,75.70
2017-12-22T07:20:36.475Z,76.30
2017-12-22T07:23:04.777Z,76.00
2017-12-22T07:25:32.280Z,76.00
2017-12-22T07:27:59.893Z,75.90
2017-12-22T07:30:27.455Z,75.80
2017-12-22T07:32:54.971Z,75.90
2017-12-22T07:35:22.484Z,76.00
2017-12-22T07:37:50.008Z,76.00
2017-12-22T07:40:18.056Z,75.90
2017-12-22T07:42:45.570Z,75.80
2017-12-22T07:45:13.889Z,75.50
2017-12-22T07:47:41.408Z,75.50
2017-12-22T07:50:09.723Z,75.50
2017-12-22T07:52:37.232Z,75.50
2017-12-22T07:55:04.700Z,75.50
2017-12-22T07:57:32.846Z,75.60
2017-12-22T08:00:00.354Z,75.60
2017-12-22T08:02:28.674Z,75.10
2017-12-22T08:04:57.262Z,74.80
2017-12-22T08:07:24.996Z,74.80
2017-12-22T08:09:53.280Z,75.00
2017-12-22T08:12:21.519Z,74.90
2017-12-22T08:14:49.052Z,74.90
2017-12-22T08:17:16.537Z,75.00
2017-12-22T08:19:44.053Z,75.00
2017-12-22T08:22:12.317Z,74.90
2017-12-22T08:24:39.907Z,74.80
2017-12-22T08:27:08.149Z,75.10
2017-12-22T08:29:35.646Z,75.70
2017-12-22T08:32:03.971Z,75.00
2017-12-22T08:34:31.486Z,75.00
2017-12-22T08:36:59.801Z,74.70
2017-12-22T08:39:27.462Z,74.70
2017-12-22T08:41:54.959Z,74.50
2017-12-22T08:44:23.297Z,74.50
2017-12-22T08:46:50.791Z,74.20
2017-12-22T08:49:18.329Z,74.20
2017-12-22T08:51:46.611Z,73.90
2017-12-22T08:54:14.112Z,74.30
2017-12-22T08:56:41.602Z,74.30
2017-12-22T08:59:09.204Z,74.40
2017-12-22T09:01:37.402Z,74.20
2017-12-22T09:04:05.114Z,74.20
2017-12-22T09:06:32.718Z,74.10
2017-12-22T09:09:00.446Z,74.20
2017-12-22T09:11:29.432Z,74.50
2017-12-22T09:13:56.924Z,74.50
2017-12-22T09:16:24.436Z,74.10
2017-12-22T09:18:51.913Z,74.20
2017-12-22T09:21:19.506Z,74.30
2017-12-22T09:23:47.749Z,74.50
2017-12-22T09:26:16.056Z,74.40
2017-12-22T09:28:44.324Z,74.10
2017-12-22T09:31:12.057Z,73.80
2017-12-22T09:33:39.939Z,73.70
2017-12-22T09:36:07.474Z,73.90
2017-12-22T09:38:34.941Z,74.00
2017-12-22T09:41:02.537Z,73.80
2017-12-22T09:43:30.034Z,73.60
2017-12-22T09:45:57.554Z,73.70
2017-12-22T09:48:25.100Z,73.20
2017-12-22T09:50:52.633Z,73.20
2017-12-22T09:53:21.077Z,72.90
2017-12-22T09:55:49.817Z,72.70
2017-12-22T09:58:18.696Z,72.70
2017-12-22T10:00:46.168Z,72.60
2017-12-22T10:03:14.427Z,72.60
2017-12-22T10:05:42.002Z,72.60
2017-12-22T10:08:09.498Z,72.40
2017-12-22T10:10:37.623Z,72.50
2017-12-22T10:13:05.137Z,72.80
2017-12-22T10:15:32.644Z,73.00
2017-12-22T10:18:00.140Z,73.80
2017-12-22T10:20:28.428Z,72.50
2017-12-22T10:22:55.934Z,72.60
2017-12-22T10:25:23.503Z,72.20
2017-12-22T10:27:51.121Z,71.50
2017-12-22T10:30:18.571Z,71.30
2017-12-22T10:32:47.169Z,72.10
2017-12-22T10:35:15.474Z,71.80
2017-12-22T10:37:42.976Z,71.80
2017-12-22T10:40:10.497Z,71.70
2017-12-22T10:42:38.054Z,72.50
2017-12-22T10:45:05.626Z,72.70
2017-12-22T10:47:33.129Z,72.40
2017-12-22T10:50:00.645Z,72.70
2017-12-22T10:52:28.150Z,73.00
2017-12-22T10:54:56.824Z,73.00
2017-12-22T10:57:24.324Z,73.20
2017-12-22T10:59:51.811Z,73.50
2017-12-22T11:02:20.076Z,74.20
2017-12-22T11:04:47.589Z,74.20
2017-12-22T11:07:15.075Z,74.30
2017-12-22T11:09:42.562Z,74.30
2017-12-22T11:12:13.010Z,73.80
2017-12-22T11:14:41.393Z,72.90
2017-12-22T11:17:10.929Z,72.80
2017-12-22T11:19:39.165Z,72.80
2017-12-22T11:22:06.825Z,72.90
2017-12-22T11:24:34.469Z,73.00
2017-12-22T11:27:02.053Z,73.10
2017-12-22T11:29:29.570Z,73.50
2017-12-22T11:31:57.152Z,73.40
2017-12-22T11:34:24.649Z,73.50
2017-12-22T11:36:52.269Z,73.40
2017-12-22T11:39:19.764Z,73.40
2017-12-22T11:41:47.280Z,73.30
2017-12-22T11:44:15.132Z,73.30
2017-12-22T11:46:43.435Z,72.90
2017-12-22T11:49:12.034Z,72.80
2017-12-22T11:51:39.870Z,72.80
2017-12-22T11:54:08.318Z,72.90
2017-12-22T11:56:36.332Z,72.80
2017-12-22T11:59:04.665Z,72.40
2017-12-22T12:01:32.977Z,72.40
2017-12-22T12:04:01.639Z,72.20
2017-12-22T12:06:29.920Z,72.10
2017-12-22T12:08:57.425Z,72.20
2017-12-22T12:11:24.922Z,72.40
2017-12-22T12:13:52.488Z,72.50
2017-12-22T12:16:21.412Z,72.10
2017-12-22T12:18:48.923Z,71.90
2017-12-22T12:21:18.061Z,72.00
2017-12-22T12:23:46.312Z,71.90
2017-12-22T12:26:14.004Z,72.10
2017-12-22T12:28:41.540Z,72.20
2017-12-22T12:31:09.017Z,72.00
2017-12-22T12:33:36.509Z,72.20
2017-12-22T12:36:04.018Z,72.40
2017-12-22T12:38:32.303Z,71.90
2017-12-22T12:41:00.666Z,71.50
2017-12-22T12:43:28.204Z,71.50
2017-12-22T12:45:55.963Z,71.50
2017-12-22T12:48:23.576Z,71.40
2017-12-22T12:50:51.858Z,71.00
2017-12-22T12:53:20.118Z,71.20
2017-12-22T12:55:48.412Z,71.10
2017-12-22T12:58:16.677Z,71.10
2017-12-22T13:00:44.740Z,71.10
2017-12-22T13:03:13.470Z,70.80
2017-12-22T13:05:41.363Z,70.70
2017-12-22T13:08:08.917Z,70.60
2017-12-22T13:10:36.521Z,70.50
2017-12-22T13:13:04.955Z,70.60
2017-12-22T13:15:33.225Z,70.80
2017-12-22T13:18:00.772Z,70.80
2017-12-22T13:20:28.253Z,70.80
2017-12-22T13:22:55.970Z,70.80
2017-12-22T13:25:23.489Z,70.70
2017-12-22T13:27:51.769Z,70.10
2017-12-22T13:30:20.453Z,70.10
2017-12-22T13:32:48.735Z,70.30
2017-12-22T13:35:17.053Z,69.80
2017-12-22T13:37:44.549Z,69.80
2017-12-22T13:40:12.089Z,70.00
2017-12-22T13:42:40.535Z,70.10
2017-12-22T13:45:08.813Z,69.40
2017-12-22T13:47:37.072Z,69.80
2017-12-22T13:50:04.588Z,69.70
2017-12-22T13:52:32.074Z,69.70
2017-12-22T13:54:59.628Z,69.50
2017-12-22T13:57:27.338Z,69.20
2017-12-22T13:59:55.624Z,69.50
2017-12-22T14:02:23.880Z,69.80
2017-12-22T14:04:51.491Z,69.80
2017-12-22T14:07:18.986Z,70.10
2017-12-22T14:09:46.548Z,70.50
2017-12-22T14:12:14.193Z,70.90
2017-12-22T14:14:41.731Z,71.20
2017-12-22T14:17:09.968Z,71.60
2017-12-22T14:19:38.509Z,71.60
2017-12-22T14:22:06.018Z,71.60
2017-12-22T14:24:33.510Z,71.60
2017-12-22T14:27:01.125Z,71.70
2017-12-22T14:29:28.635Z,71.90
2017-12-22T14:31:56.206Z,71.50
2017-12-22T14:34:24.500Z,71.80
2017-12-22T14:36:52.758Z,72.00
2017-12-22T14:39:20.850Z,71.90
2017-12-22T14:41:48.314Z,71.90
2017-12-22T14:44:16.593Z,72.00
2017-12-22T14:46:44.856Z,71.50
2017-12-22T14:49:13.492Z,71.80
2017-12-22T14:51:41.099Z,71.70
2017-12-22T14:54:10.598Z,72.00
2017-12-22T14:56:38.138Z,72.20
2017-12-22T14:59:05.686Z,72.10
2017-12-22T15:01:33.362Z,72.40
2017-12-22T15:04:00.861Z,72.60
2017-12-22T15:06:28.452Z,73.00
2017-12-22T15:08:55.939Z,73.30
2017-12-22T15:11:23.426Z,74.40
2017-12-22T15:13:50.908Z,74.20
2017-12-22T15:16:18.418Z,73.90
2017-12-22T15:18:46.686Z,73.60
2017-12-22T15:21:14.977Z,73.80
2017-12-22T15:23:43.262Z,73.80
2017-12-22T15:26:11.575Z,73.80
2017-12-22T15:28:39.058Z,73.70
2017-12-22T15:31:06.573Z,73.80
2017-12-22T15:33:34.107Z,73.50
2017-12-22T15:36:02.457Z,73.50
2017-12-22T15:38:29.981Z,73.70
2017-12-22T15:40:58.259Z,74.00
2017-12-22T15:43:26.521Z,74.40
2017-12-22T15:45:54.835Z,74.30
2017-12-22T15:48:22.366Z,74.50
2017-12-22T15:50:49.962Z,74.80
2017-12-22T15:53:17.458Z,75.10
2017-12-22T15:55:44.949Z,75.20
2017-12-22T15:58:12.445Z,75.10
2017-12-22T16:00:39.963Z,75.20
2017-12-22T16:03:07.487Z,75.30
2017-12-22T16:05:34.992Z,75.10
2017-12-22T16:08:02.495Z,75.20
2017-12-22T16:10:30.753Z,74.90
2017-12-22T16:12:59.058Z,74.60
2017-12-22T16:15:27.306Z,74.40
2017-12-22T16:17:54.841Z,74.40
2017-12-22T16:20:22.349Z,74.30
2017-12-22T16:22:49.862Z,74.00
2017-12-22T16:25:18.025Z,74.00
2017-12-22T16:27:45.537Z,73.90
2017-12-22T16:30:13.144Z,73.80
2017-12-22T16:32:40.651Z,73.30
2017-12-22T16:35:08.155Z,73.40
2017-12-22T16:37:36.418Z,73.50
2017-12-22T16:40:04.006Z,73.50
2017-12-22T16:42:32.317Z,74.20
2017-12-22T16:44:59.813Z,74.10
2017-12-22T16:47:27.310Z,74.50
2017-12-22T16:49:55.552Z,74.60
2017-12-22T16:52:23.162Z,74.60
2017-12-22T16:54:51.406Z,75.00
2017-12-22T16:57:18.940Z,75.00
2017-12-22T16:59:46.457Z,75.30
2017-12-22T17:02:13.984Z,75.50
2017-12-22T17:04:41.589Z,75.80
2017-12-22T17:07:09.836Z,75.40
2017-12-22T17:09:37.331Z,75.40
2017-12-22T17:12:05.632Z,75.50
2017-12-22T17:14:33.177Z,74.80
2017-12-22T17:17:01.444Z,74.30
2017-12-22T17:19:30.178Z,74.40
2017-12-22T17:21:58.474Z,74.40
2017-12-22T17:24:25.963Z,74.50
2017-12-22T17:26:53.462Z,74.70
2017-12-22T17:29:21.740Z,75.00
2017-12-22T17:31:50.011Z,75.10
2017-12-22T17:34:18.299Z,74.60
2017-12-22T17:36:46.569Z,74.50
2017-12-22T17:39:14.846Z,74.10
2017-12-22T17:41:43.169Z,74.60
2017-12-22T17:44:10.669Z,74.30
2017-12-22T17:46:38.146Z,74.40
2017-12-22T17:49:05.636Z,74.50
2017-12-22T17:51:33.188Z,74.90
2017-12-22T17:54:01.482Z,75.10
2017-12-22T17:56:29.021Z,75.10
2017-12-22T17:58:56.596Z,75.00
2017-12-22T18:01:24.857Z,75.30
2017-12-22T18:03:53.877Z,75.40
2017-12-22T18:06:22.169Z,75.20
2017-12-22T18:08:50.785Z,75.50
2017-12-22T18:11:18.253Z,75.50
2017-12-22T18:13:45.741Z,75.30
2017-12-22T18:16:13.349Z,75.30
2017-12-22T18:18:41.982Z,75.30
2017-12-22T18:21:09.474Z,75.30
2017-12-22T18:23:37.746Z,75.50
2017-12-22T18:26:05.239Z,75.50
2017-12-22T18:28:32.759Z,75.50
2017-12-22T18:31:00.272Z,75.70
2017-12-22T18:33:29.549Z,75.50
2017-12-22T18:35:57.043Z,75.50
2017-12-22T18:38:24.533Z,75.70
2017-12-22T18:40:52.074Z,75.90
2017-12-22T18:43:19.549Z,75.50
2017-12-22T18:45:47.036Z,75.50
2017-12-22T18:48:14.526Z,75.30
2017-12-22T18:50:42.818Z,75.50
2017-12-22T18:53:11.065Z,75.40
2017-12-22T18:55:38.560Z,75.30
2017-12-22T18:58:06.800Z,75.10
2017-12-22T19:00:34.321Z,75.10
2017-12-22T19:03:01.895Z,75.00
2017-12-22T19:05:29.434Z,75.00
2017-12-22T19:07:57.721Z,75.20
2017-12-22T19:10:25.997Z,75.50
2017-12-22T19:12:54.307Z,75.50
2017-12-22T19:15:21.805Z,75.50
2017-12-22T19:17:49.348Z,75.90
2017-12-22T19:20:16.838Z,75.40
2017-12-22T19:22:44.958Z,75.30
2017-12-22T19:25:12.512Z,75.10
2017-12-22T19:27:40.790Z,74.80
2017-12-22T19:30:09.062Z,74.60
2017-12-22T19:32:36.626Z,74.60
2017-12-22T19:35:04.886Z,74.80
2017-12-22T19:37:32.366Z,74.40
2017-12-22T19:40:00.673Z,74.30
2017-12-22T19:42:28.860Z,74.30
2017-12-22T19:44:56.362Z,74.20
2017-12-22T19:47:23.860Z,74.50
2017-12-22T19:49:52.134Z,74.50
2017-12-22T19:52:20.385Z,73.90
2017-12-22T19:54:47.908Z,74.50
2017-12-22T19:57:15.855Z,74.00
2017-12-22T19:59:44.555Z,73.90
2017-12-22T20:02:12.841Z,74.00
2017-12-22T20:04:40.333Z,74.00
2017-12-22T20:07:07.829Z,74.00
2017-12-22T20:09:35.434Z,74.10
2017-12-22T20:12:03.715Z,74.50
2017-12-22T20:14:31.257Z,74.40
2017-12-22T20:16:58.761Z,74.50
2017-12-22T20:19:26.289Z,74.40
2017-12-22T20:21:53.822Z,74.50
2017-12-22T20:24:21.338Z,74.50
2017-12-22T20:26:48.898Z,74.80
2017-12-22T20:29:16.376Z,74.30
2017-12-22T20:31:43.882Z,74.20
2017-12-22T20:34:11.368Z,74.30
2017-12-22T20:36:39.649Z,74.50
2017-12-22T20:39:07.913Z,74.40
2017-12-22T20:41:35.449Z,74.30
2017-12-22T20:44:02.941Z,75.20
2017-12-22T20:46:30.454Z,74.70
2017-12-22T20:48:58.242Z,74.40
2017-12-22T20:51:25.722Z,73.80
2017-12-22T20:53:53.335Z,73.50
2017-12-22T20:56:21.387Z,73.50
2017-12-22T20:58:50.088Z,73.90
2017-12-22T21:01:18.332Z,74.00
2017-12-22T21:03:45.958Z,74.00
2017-12-22T21:06:13.429Z,74.00
2017-12-22T21:08:40.980Z,73.90
2017-12-22T21:11:08.468Z,74.00
2017-12-22T21:13:36.424Z,74.10
2017-12-22T21:16:03.916Z,73.90
2017-12-22T21:18:31.447Z,74.00
2017-12-22T21:20:58.985Z,74.20
2017-12-22T21:23:27.249Z,74.50
2017-12-22T21:25:54.781Z,74.50
2017-12-22T21:28:22.264Z,74.60
2017-12-22T21:30:49.749Z,74.30
2017-12-22T21:33:18.016Z,74.90
2017-12-22T21:35:45.553Z,74.40
2017-12-22T21:38:13.087Z,75.20
2017-12-22T21:40:40.602Z,74.40
2017-12-22T21:43:08.082Z,73.50
2017-12-22T21:45:36.353Z,73.50
2017-12-22T21:48:03.843Z,73.50
2017-12-22T21:50:31.346Z,73.30
2017-12-22T21:52:58.894Z,73.30
2017-12-22T21:55:26.360Z,73.30
2017-12-22T21:57:53.869Z,73.50
2017-12-22T22:00:21.342Z,73.30
2017-12-22T22:02:49.945Z,73.50
2017-12-22T22:05:17.761Z,73.40
2017-12-22T22:07:45.257Z,73.50
2017-12-22T22:10:13.472Z,73.60
2017-12-22T22:12:41.741Z,74.20
2017-12-22T22:15:09.279Z,74.10
2017-12-22T22:17:38.449Z,74.60
2017-12-22T22:20:06.114Z,73.90
2017-12-22T22:22:33.612Z,73.60
2017-12-22T22:25:01.869Z,73.60
2017-12-22T22:27:29.368Z,73.40
2017-12-22T22:29:57.644Z,73.80
2017-12-22T22:32:25.901Z,73.70
2017-12-22T22:34:53.416Z,73.70
2017-12-22T22:37:20.925Z,73.90
2017-12-22T22:39:49.197Z,74.10
2017-12-22T22:42:16.710Z,74.10
2017-12-22T22:44:44.379Z,73.90
2017-12-22T22:47:11.940Z,73.80
2017-12-22T22:49:39.430Z,73.80
2017-12-22T22:52:06.975Z,74.10
2017-12-22T22:54:34.490Z,74.30
2017-12-22T22:57:01.997Z,74.60
2017-12-22T22:59:29.493Z,74.70
2017-12-22T23:01:56.990Z,74.80
2017-12-22T23:04:25.285Z,75.70
2017-12-22T23:06:53.562Z,74.90
2017-12-22T23:09:21.857Z,75.00
2017-12-22T23:11:50.131Z,75.10
2017-12-22T23:14:18.388Z,75.20
2017-12-22T23:16:45.874Z,75.20
2017-12-22T23:19:14.121Z,75.20
2017-12-22T23:21:41.605Z,75.10
2017-12-22T23:24:09.187Z,75.00
2017-12-22T23:26:37.444Z,75.00
2017-12-22T23:29:04.976Z,75.00
2017-12-22T23:31:44.593Z,75.10
2017-12-22T23:34:12.154Z,75.30
2017-12-22T23:36:39.656Z,75.50
2017-12-22T23:39:07.868Z,75.50
2017-12-22T23:41:36.145Z,75.70
2017-12-22T23:44:04.963Z,76.00
2017-12-22T23:46:32.498Z,75.90
2017-12-22T23:49:00.752Z,75.80
2017-12-22T23:51:28.252Z,75.80
2017-12-22T23:53:56.597Z,75.80
2017-12-22T23:56:24.103Z,75.80
2017-12-22T23:58:52.384Z,75.70
